Terminal Aerodrome Forecast
Issued by NWS

Home | Current Version | Previous Version | Text Only | Print | Product List | Glossary On
Versions: 1 2 3 4 5 6 7 8 9 10 11 12 13 14 15 16 17 18 19 20
000
FTUS44 KLZK 261100
TAFPBF
TAF
KPBF 261134Z 2612/2712 36005KT P6SM SKC
     FM261700 02007KT P6SM BKN020
     FM262000 03008KT P6SM BKN035
     FM262200 05009KT P6SM SCT030=

USA.gov is the U.S. government's official web portal to all federal, state and local government web resources and services.